Time;durP1;ratioP1;P1;durP2;ratioP2;P2;SDS_P1;SDS_P2;PMS_P1;PMS_P2;Temp;Humidity;BMP_temperature;BMP_pressure;BME280_temperature;BME280_humidity;BME280_pressure;Samples;Min_cycle;Max_cycle;Signal;HPM_P1;HPM_P2
2021/07/30 00:02:25;;;;;;;5.63;2.70;;;17.90;68.40;;;;;;5010842;28;20100;-75
2021/07/30 00:04:50;;;;;;;4.72;3.05;;;17.90;68.90;;;;;;5014977;28;20105;-76
2021/07/30 00:07:16;;;;;;;6.10;2.95;;;17.80;69.30;;;;;;5017135;28;20114;-76
2021/07/30 00:09:41;;;;;;;5.43;2.88;;;17.80;69.30;;;;;;5018720;28;20037;-75
2021/07/30 00:12:07;;;;;;;4.43;2.67;;;17.60;69.30;;;;;;5019560;28;20022;-76
2021/07/30 00:14:33;;;;;;;6.07;3.28;;;17.70;69.50;;;;;;5020156;28;20430;-74
2021/07/30 00:16:59;;;;;;;4.70;2.60;;;;;;;;;;5016451;28;20037;-74
2021/07/30 00:19:25;;;;;;;4.30;2.40;;;17.60;69.30;;;;;;5017118;28;20656;-76
2021/07/30 00:21:50;;;;;;;4.47;2.60;;;17.60;69.60;;;;;;5015200;28;20117;-76
2021/07/30 00:24:16;;;;;;;5.25;3.03;;;17.60;69.60;;;;;;5011810;28;20018;-75
2021/07/30 00:26:42;;;;;;;7.10;3.10;;;17.60;69.70;;;;;;5016323;28;20026;-76
2021/07/30 00:29:07;;;;;;;4.07;2.45;;;17.60;69.60;;;;;;5010857;28;20053;-76
2021/07/30 00:31:33;;;;;;;4.50;3.05;;;17.60;69.80;;;;;;5015341;28;20112;-75
2021/07/30 00:33:58;;;;;;;4.95;2.95;;;17.60;70.00;;;;;;5017964;28;20443;-75
2021/07/30 00:36:24;;;;;;;4.22;2.72;;;17.60;70.10;;;;;;5021112;28;20499;-75
2021/07/30 00:38:49;;;;;;;6.70;2.80;;;17.60;69.90;;;;;;5014534;28;20026;-75
2021/07/30 00:41:16;;;;;;;3.88;2.90;;;17.60;70.20;;;;;;5017770;28;20034;-75
2021/07/30 00:43:41;;;;;;;5.97;2.70;;;17.50;70.40;;;;;;5016811;28;20065;-75
2021/07/30 00:46:08;;;;;;;6.13;2.83;;;17.40;70.70;;;;;;5015049;28;20045;-74
2021/07/30 00:48:34;;;;;;;4.35;2.60;;;17.40;70.70;;;;;;5016837;28;20025;-75
2021/07/30 00:51:00;;;;;;;5.18;2.90;;;17.30;70.80;;;;;;5017160;28;20028;-76
2021/07/30 00:53:26;;;;;;;4.15;2.80;;;17.30;71.20;;;;;;5019710;28;20029;-75
2021/07/30 00:55:54;;;;;;;5.53;3.13;;;17.20;71.50;;;;;;5022395;28;20029;-74
2021/07/30 00:58:20;;;;;;;8.30;2.95;;;17.20;71.40;;;;;;5020567;28;20033;-76
2021/07/30 01:00:46;;;;;;;6.72;2.60;;;17.20;71.00;;;;;;5011964;28;20141;-75
2021/07/30 01:03:11;;;;;;;6.47;2.88;;;17.10;71.60;;;;;;5015253;28;20059;-75
2021/07/30 01:05:37;;;;;;;4.75;2.65;;;17.20;71.80;;;;;;5015798;28;20085;-75
2021/07/30 01:08:04;;;;;;;6.35;2.53;;;17.20;72.00;;;;;;5014838;28;20049;-76
2021/07/30 01:10:30;;;;;;;5.40;2.70;;;17.20;72.00;;;;;;5017418;28;20026;-74
2021/07/30 01:12:56;;;;;;;4.32;2.78;;;17.20;72.30;;;;;;5013958;28;20080;-75
2021/07/30 01:15:23;;;;;;;4.13;2.70;;;17.10;72.30;;;;;;5018130;28;20460;-75
2021/07/30 01:17:49;;;;;;;8.02;3.00;;;17.10;72.70;;;;;;5016463;28;20038;-76
2021/07/30 01:20:23;;;;;;;6.93;4.57;;;17.00;72.80;;;;;;5017597;28;20432;-76
2021/07/30 01:22:57;;;;;;;4.13;3.05;;;17.00;73.10;;;;;;5019434;28;20041;-77
2021/07/30 01:25:24;;;;;;;5.55;3.17;;;16.90;73.20;;;;;;5003800;28;20534;-76
2021/07/30 01:27:50;;;;;;;5.15;3.08;;;16.90;73.30;;;;;;5018712;28;20041;-76
2021/07/30 01:30:18;;;;;;;4.28;3.08;;;16.90;73.60;;;;;;5018458;28;20022;-77
2021/07/30 01:32:44;;;;;;;5.50;2.70;;;16.80;73.40;;;;;;5022676;28;20116;-76
2021/07/30 01:35:10;;;;;;;6.20;2.95;;;16.80;73.60;;;;;;5021247;28;20200;-75
2021/07/30 01:37:40;;;;;;;9.02;3.88;;;16.80;74.20;;;;;;5001502;28;20088;-75
2021/07/30 01:40:07;;;;;;;7.30;3.20;;;16.70;74.30;;;;;;5011204;28;20052;-75
2021/07/30 01:42:32;;;;;;;4.65;2.97;;;16.70;74.20;;;;;;5018218;28;20060;-75
2021/07/30 01:44:58;;;;;;;5.43;3.00;;;16.70;74.40;;;;;;5022164;28;20108;-75
2021/07/30 01:47:24;;;;;;;5.13;3.00;;;16.70;74.00;;;;;;5018154;28;20033;-76
2021/07/30 01:49:50;;;;;;;4.07;2.88;;;16.70;74.70;;;;;;5023161;28;20035;-76
2021/07/30 01:52:19;;;;;;;6.60;3.40;;;16.60;75.00;;;;;;5018414;28;20021;-76
2021/07/30 01:54:45;;;;;;;5.07;2.80;;;16.50;75.10;;;;;;5019913;28;20032;-76
2021/07/30 01:57:16;;;;;;;6.82;3.75;;;16.50;75.50;;;;;;5021304;28;20044;-77
2021/07/30 01:59:42;;;;;;;3.97;2.72;;;16.50;75.50;;;;;;5014032;28;20037;-75
2021/07/30 02:02:11;;;;;;;4.63;3.05;;;16.50;75.00;;;;;;5016396;28;20060;-76
2021/07/30 02:04:37;;;;;;;4.72;3.38;;;16.50;75.40;;;;;;4997045;28;20028;-76
2021/07/30 02:07:03;;;;;;;4.50;3.08;;;16.50;76.10;;;;;;5021934;28;20476;-76
2021/07/30 02:09:30;;;;;;;5.28;2.78;;;16.50;75.50;;;;;;5025476;28;20028;-76
2021/07/30 02:11:56;;;;;;;8.10;2.80;;;16.50;75.40;;;;;;5015774;28;20047;-77
2021/07/30 02:14:28;;;;;;;9.20;3.03;;;16.50;75.40;;;;;;5018872;28;20025;-77
2021/07/30 02:16:57;;;;;;;5.28;3.03;;;16.50;75.50;;;;;;5018803;28;20076;-77
2021/07/30 02:19:23;;;;;;;5.75;3.13;;;16.30;76.10;;;;;;5021292;28;20021;-77
2021/07/30 02:21:51;;;;;;;6.63;3.05;;;16.20;76.50;;;;;;5014943;28;20040;-76
2021/07/30 02:24:18;;;;;;;6.18;3.17;;;16.20;76.60;;;;;;5013283;28;20096;-76
2021/07/30 02:26:43;;;;;;;6.30;3.13;;;16.20;76.90;;;;;;5018830;28;20084;-76
2021/07/30 02:29:09;;;;;;;4.03;2.47;;;16.10;76.90;;;;;;5017725;28;20022;-76
2021/07/30 02:31:34;;;;;;;4.53;3.28;;;16.10;77.10;;;;;;5020883;28;20040;-76
2021/07/30 02:34:00;;;;;;;5.13;2.80;;;16.20;76.90;;;;;;5015166;28;20052;-77
2021/07/30 02:36:25;;;;;;;6.10;3.55;;;16.10;76.70;;;;;;5015832;28;20120;-77
2021/07/30 02:38:51;;;;;;;7.43;3.65;;;16.10;77.10;;;;;;5021808;28;20040;-76
2021/07/30 02:41:17;;;;;;;6.40;3.20;;;16.10;77.40;;;;;;5020051;28;20677;-76
2021/07/30 02:43:43;;;;;;;7.63;3.80;;;16.00;77.60;;;;;;5020973;28;20042;-78
2021/07/30 02:46:09;;;;;;;3.38;2.53;;;16.00;77.80;;;;;;5018156;28;20041;-78
2021/07/30 02:48:35;;;;;;;5.22;2.92;;;16.00;77.50;;;;;;5001326;28;20026;-77
2021/07/30 02:51:01;;;;;;;8.30;3.15;;;15.90;77.70;;;;;;5021006;28;20029;-77
2021/07/30 02:53:26;;;;;;;6.53;3.50;;;16.00;77.90;;;;;;5012995;28;20040;-77
2021/07/30 02:55:52;;;;;;;6.28;3.10;;;15.90;78.00;;;;;;5021398;28;20439;-77
2021/07/30 02:58:17;;;;;;;4.28;3.30;;;15.90;78.60;;;;;;5017128;28;20036;-77
2021/07/30 03:00:43;;;;;;;4.55;3.20;;;15.80;78.40;;;;;;5014421;28;20121;-78
2021/07/30 03:03:08;;;;;;;5.30;3.30;;;15.80;79.00;;;;;;5016268;28;20025;-77
2021/07/30 03:05:34;;;;;;;3.50;2.90;;;15.70;79.10;;;;;;5017616;28;20059;-78
2021/07/30 03:07:59;;;;;;;5.38;3.05;;;15.70;79.30;;;;;;5022390;28;20029;-76
2021/07/30 03:10:25;;;;;;;4.93;3.47;;;15.80;79.40;;;;;;5019248;28;20029;-78
2021/07/30 03:12:50;;;;;;;6.97;3.20;;;15.70;79.10;;;;;;5016937;28;20109;-78
2021/07/30 03:15:16;;;;;;;5.30;3.17;;;15.60;79.60;;;;;;5016533;28;20088;-79
2021/07/30 03:17:42;;;;;;;6.47;3.13;;;15.70;79.80;;;;;;5016715;28;20377;-78
2021/07/30 03:20:08;;;;;;;8.68;4.05;;;15.70;79.90;;;;;;5021396;28;20021;-76
2021/07/30 03:22:34;;;;;;;8.18;4.82;;;15.60;80.10;;;;;;5016788;28;20476;-80
2021/07/30 03:25:00;;;;;;;12.82;4.63;;;15.70;80.10;;;;;;5017644;28;20030;-77
2021/07/30 03:27:26;;;;;;;5.32;3.50;;;15.90;79.10;;;;;;5018664;28;20033;-77
2021/07/30 03:29:52;;;;;;;7.38;4.40;;;15.70;79.50;;;;;;5021132;28;20034;-75
2021/07/30 03:32:18;;;;;;;5.75;3.25;;;15.80;79.50;;;;;;5014165;28;20026;-76
2021/07/30 03:34:45;;;;;;;8.48;3.22;;;15.90;79.30;;;;;;5015723;28;20038;-76
2021/07/30 03:37:14;;;;;;;4.28;3.00;;;15.90;79.30;;;;;;5019658;28;20156;-76
2021/07/30 03:39:40;;;;;;;5.68;3.20;;;15.90;79.10;;;;;;5021257;28;20032;-75
2021/07/30 03:42:06;;;;;;;4.82;3.20;;;16.00;79.10;;;;;;5018491;28;20392;-76
2021/07/30 03:44:32;;;;;;;5.85;4.00;;;16.00;79.10;;;;;;5015150;28;20061;-76
2021/07/30 03:46:58;;;;;;;4.93;3.30;;;16.10;79.00;;;;;;5018348;28;20022;-76
2021/07/30 03:49:24;;;;;;;7.80;3.65;;;16.10;78.80;;;;;;5020394;28;20100;-77
2021/07/30 03:51:49;;;;;;;4.00;3.13;;;16.10;78.90;;;;;;5015812;28;20161;-76
2021/07/30 03:54:16;;;;;;;5.30;3.00;;;16.10;79.00;;;;;;5016019;28;20022;-76
2021/07/30 03:56:42;;;;;;;3.35;2.95;;;16.10;79.00;;;;;;5017673;28;20048;-76
2021/07/30 03:59:08;;;;;;;5.90;3.17;;;16.20;79.00;;;;;;5017233;28;20029;-76
2021/07/30 04:01:35;;;;;;;9.02;3.70;;;16.30;78.20;;;;;;5013164;28;20033;-76
2021/07/30 04:04:00;;;;;;;5.90;3.53;;;16.30;78.70;;;;;;5018739;28;20113;-76
2021/07/30 04:06:26;;;;;;;5.78;3.22;;;16.30;78.80;;;;;;5014100;28;20101;-76
2021/07/30 04:08:51;;;;;;;3.90;2.88;;;16.30;78.90;;;;;;5019104;28;20037;-75
2021/07/30 04:11:17;;;;;;;5.35;3.38;;;16.20;79.10;;;;;;5015932;28;20017;-76
2021/07/30 04:13:45;;;;;;;4.38;3.28;;;16.20;79.20;;;;;;5015469;28;20033;-77
2021/07/30 04:16:11;;;;;;;4.55;3.10;;;16.20;79.20;;;;;;5018833;28;20041;-77
2021/07/30 04:18:37;;;;;;;6.57;2.85;;;16.20;79.30;;;;;;5013044;28;20026;-77
2021/07/30 04:21:07;;;;;;;8.77;3.22;;;16.10;79.60;;;;;;5018273;28;20030;-77
2021/07/30 04:23:33;;;;;;;7.97;3.40;;;16.10;79.80;;;;;;5016974;28;20126;-76
2021/07/30 04:25:59;;;;;;;3.88;2.80;;;16.10;79.90;;;;;;5018441;28;20018;-76
2021/07/30 04:28:25;;;;;;;3.97;3.08;;;;;;;;;;5016105;28;20500;-77
2021/07/30 04:30:51;;;;;;;12.80;4.10;;;16.10;79.40;;;;;;5011827;28;20033;-77
2021/07/30 04:33:17;;;;;;;5.35;3.20;;;16.10;80.20;;;;;;5021829;28;20472;-77
2021/07/30 04:35:43;;;;;;;6.68;3.47;;;16.20;80.30;;;;;;5014581;28;20343;-76
2021/07/30 04:38:08;;;;;;;7.15;3.13;;;16.20;80.30;;;;;;5012005;28;20478;-78
2021/07/30 04:40:35;;;;;;;9.18;3.63;;;16.30;79.80;;;;;;5014238;28;20038;-76
2021/07/30 04:43:01;;;;;;;4.32;3.50;;;16.30;80.10;;;;;;5033573;28;20042;-76
2021/07/30 04:45:26;;;;;;;4.40;3.85;;;16.30;80.60;;;;;;5013251;28;20086;-78
2021/07/30 04:47:52;;;;;;;6.38;4.85;;;16.30;80.80;;;;;;5032649;28;20048;-77
2021/07/30 04:50:18;;;;;;;5.40;3.97;;;16.30;81.10;;;;;;5027763;28;20002;-75
2021/07/30 04:52:44;;;;;;;9.00;4.60;;;16.30;81.30;;;;;;5042908;28;20074;-76
2021/07/30 04:55:09;;;;;;;6.72;3.60;;;16.30;81.50;;;;;;5019070;28;20026;-76
2021/07/30 04:57:35;;;;;;;8.82;3.67;;;16.40;81.50;;;;;;5032271;28;20025;-76
2021/07/30 05:00:01;;;;;;;5.97;3.75;;;16.40;81.50;;;;;;5019688;28;20502;-76
2021/07/30 05:02:26;;;;;;;8.57;5.10;;;16.40;80.80;;;;;;5013095;28;20029;-77
2021/07/30 05:04:55;;;;;;;8.80;4.30;;;16.50;81.50;;;;;;5016407;28;20018;-76
2021/07/30 05:07:22;;;;;;;6.35;3.25;;;16.50;81.50;;;;;;5020700;28;20033;-76
2021/07/30 05:09:48;;;;;;;14.32;4.15;;;16.60;81.40;;;;;;5020367;28;20025;-76
2021/07/30 05:12:13;;;;;;;6.05;4.50;;;16.60;81.70;;;;;;5019241;28;20017;-77
2021/07/30 05:14:39;;;;;;;6.80;4.53;;;16.70;81.70;;;;;;5021574;28;20488;-76
2021/07/30 05:17:04;;;;;;;6.40;3.10;;;16.70;81.60;;;;;;5019920;28;20048;-76
2021/07/30 05:19:30;;;;;;;8.38;3.55;;;16.80;81.60;;;;;;5016678;28;20044;-76
2021/07/30 05:21:56;;;;;;;4.88;3.28;;;16.80;81.20;;;;;;5017689;28;20030;-75
2021/07/30 05:24:21;;;;;;;8.85;4.30;;;17.00;81.00;;;;;;5019359;28;20026;-75
2021/07/30 05:26:47;;;;;;;5.95;3.60;;;17.20;81.00;;;;;;5032389;28;20567;-75
2021/07/30 05:29:12;;;;;;;7.53;3.88;;;17.40;80.30;;;;;;5029805;28;20034;-74
2021/07/30 05:31:38;;;;;;;5.28;3.72;;;17.60;79.60;;;;;;5028793;28;20056;-75
2021/07/30 05:34:03;;;;;;;6.85;3.78;;;17.90;79.00;;;;;;5032155;28;20125;-75
2021/07/30 05:36:29;;;;;;;5.22;3.50;;;18.40;77.80;;;;;;5016437;28;20145;-75
2021/07/30 05:38:54;;;;;;;6.75;3.60;;;19.30;75.60;;;;;;5019671;28;20025;-75
2021/07/30 05:41:20;;;;;;;5.35;3.10;;;20.40;72.30;;;;;;5021435;28;20117;-75
2021/07/30 05:43:47;;;;;;;4.60;2.97;;;21.50;70.00;;;;;;5023012;28;20504;-75
2021/07/30 05:46:14;;;;;;;3.60;2.60;;;22.70;67.00;;;;;;5021187;28;20435;-75
2021/07/30 05:48:39;;;;;;;9.07;3.33;;;23.30;65.40;;;;;;5021533;28;20018;-75
2021/07/30 05:51:05;;;;;;;6.60;2.90;;;23.70;63.80;;;;;;5022456;28;20037;-75
2021/07/30 05:53:30;;;;;;;8.05;2.72;;;23.50;64.00;;;;;;5020030;28;20723;-75
2021/07/30 05:55:56;;;;;;;6.65;3.08;;;22.80;65.40;;;;;;5023105;28;20021;-75
2021/07/30 05:58:21;;;;;;;5.35;2.90;;;22.00;67.00;;;;;;5022667;28;20034;-75
2021/07/30 06:00:47;;;;;;;9.02;3.65;;;20.60;69.50;;;;;;5021715;28;20484;-74
2021/07/30 06:03:12;;;;;;;5.50;3.42;;;20.50;70.50;;;;;;5022235;28;20120;-75
2021/07/30 06:05:38;;;;;;;10.80;3.20;;;20.00;72.00;;;;;;5021001;28;20490;-74
2021/07/30 06:08:05;;;;;;;5.20;3.15;;;19.70;73.10;;;;;;5022155;28;20025;-74
2021/07/30 06:10:32;;;;;;;7.88;2.97;;;19.60;73.50;;;;;;5016925;28;20022;-74
2021/07/30 06:12:57;;;;;;;6.55;3.08;;;19.50;74.10;;;;;;5020286;28;20108;-75
2021/07/30 06:15:23;;;;;;;7.68;5.03;;;19.40;74.60;;;;;;5022321;28;20419;-75
2021/07/30 06:17:50;;;;;;;7.05;3.30;;;19.40;74.70;;;;;;5019126;28;20030;-75
2021/07/30 06:20:16;;;;;;;5.72;3.33;;;19.40;74.60;;;;;;5021477;28;20037;-75
2021/07/30 06:22:41;;;;;;;8.85;3.80;;;19.40;74.70;;;;;;5020419;28;20057;-75
2021/07/30 06:25:07;;;;;;;8.80;3.72;;;19.30;75.40;;;;;;5018921;28;20055;-75
2021/07/30 06:27:36;;;;;;;9.70;3.13;;;19.30;75.10;;;;;;5020080;28;20147;-75
2021/07/30 06:30:03;;;;;;;7.38;3.22;;;19.40;74.90;;;;;;5015538;28;20029;-76
2021/07/30 06:32:29;;;;;;;8.63;4.18;;;19.40;75.20;;;;;;5023653;28;20037;-76
2021/07/30 06:34:55;;;;;;;6.20;3.33;;;19.50;75.90;;;;;;5021686;28;20446;-76
2021/07/30 06:37:20;;;;;;;10.65;4.85;;;19.50;75.30;;;;;;5018786;28;20033;-75
2021/07/30 06:39:46;;;;;;;8.88;3.42;;;19.60;75.20;;;;;;5019107;28;20071;-75
2021/07/30 06:42:11;;;;;;;8.43;3.80;;;19.80;74.80;;;;;;5019850;28;20053;-75
2021/07/30 06:44:37;;;;;;;12.43;4.28;;;20.00;74.30;;;;;;5021350;28;20460;-75
2021/07/30 06:47:05;;;;;;;12.18;4.35;;;20.90;72.40;;;;;;5019659;28;20090;-78
2021/07/30 06:49:36;;;;;;;6.63;3.53;;;21.00;73.00;;;;;;5014718;28;20022;-74
2021/07/30 06:52:04;;;;;;;8.95;3.10;;;21.80;71.60;;;;;;5019536;28;20038;-75
2021/07/30 06:54:33;;;;;;;5.35;2.72;;;23.50;67.90;;;;;;5018859;28;20032;-75
2021/07/30 06:57:02;;;;;;;6.40;3.13;;;25.30;64.50;;;;;;5019255;28;20101;-76
2021/07/30 06:59:27;;;;;;;6.72;3.40;;;26.50;61.70;;;;;;5009041;28;20491;-76
2021/07/30 07:01:54;;;;;;;7.85;2.83;;;27.80;59.40;;;;;;5022075;28;20021;-76
2021/07/30 07:04:19;;;;;;;4.70;2.90;;;28.60;57.80;;;;;;5019368;28;20080;-76
2021/07/30 07:06:47;;;;;;;4.30;3.03;;;29.00;56.20;;;;;;5016572;28;20034;-76
2021/07/30 07:09:17;;;;;;;7.25;3.17;;;28.90;56.30;;;;;;5021702;28;20021;-77
2021/07/30 07:11:43;;;;;;;7.63;3.05;;;28.90;55.80;;;;;;5018576;28;20017;-77
2021/07/30 07:14:08;;;;;;;7.05;3.10;;;29.10;56.20;;;;;;5019359;28;20041;-76
2021/07/30 07:16:34;;;;;;;5.53;2.65;;;29.60;54.80;;;;;;5018297;28;20033;-76
2021/07/30 07:19:00;;;;;;;6.10;3.00;;;29.60;54.80;;;;;;5018340;28;20120;-76
2021/07/30 07:21:25;;;;;;;7.07;3.72;;;30.20;54.30;;;;;;5016409;28;20055;-76
2021/07/30 07:23:51;;;;;;;9.55;2.83;;;29.70;54.90;;;;;;5011892;28;20064;-77
2021/07/30 07:26:18;;;;;;;7.50;2.60;;;30.50;53.10;;;;;;5017819;28;20093;-77
2021/07/30 07:28:44;;;;;;;8.05;2.92;;;30.50;53.10;;;;;;5014472;28;20298;-77
2021/07/30 07:31:10;;;;;;;5.78;3.08;;;31.20;52.50;;;;;;5012708;28;20022;-77
2021/07/30 07:33:35;;;;;;;4.35;2.80;;;32.40;50.80;;;;;;5018566;28;20030;-77
2021/07/30 07:36:01;;;;;;;4.93;2.92;;;32.90;50.40;;;;;;5019532;28;20484;-78
2021/07/30 07:38:27;;;;;;;6.65;2.92;;;32.90;49.50;;;;;;5016261;28;20037;-77
2021/07/30 07:40:52;;;;;;;4.03;3.00;;;31.80;50.50;;;;;;5017445;28;20032;-77
2021/07/30 07:43:18;;;;;;;5.15;3.28;;;32.00;50.70;;;;;;5018786;28;20045;-77
2021/07/30 07:45:44;;;;;;;5.43;2.90;;;31.80;50.60;;;;;;5016583;28;20026;-77
2021/07/30 07:48:10;;;;;;;7.43;3.33;;;32.50;49.70;;;;;;5018621;28;20025;-85
2021/07/30 07:50:35;;;;;;;5.35;3.60;;;32.50;49.40;;;;;;5018499;28;20032;-86
2021/07/30 07:53:01;;;;;;;4.75;3.53;;;33.00;48.40;;;;;;5000305;28;20065;-76
2021/07/30 07:55:26;;;;;;;6.72;3.15;;;32.40;48.80;;;;;;5010844;28;20033;-76
2021/07/30 07:57:51;;;;;;;11.43;7.68;;;32.80;48.30;;;;;;5006138;28;20034;-76
2021/07/30 08:00:17;;;;;;;7.35;4.10;;;33.60;47.80;;;;;;5008441;28;20040;-76
2021/07/30 08:02:43;;;;;;;7.60;3.50;;;32.60;48.60;;;;;;5006620;28;20026;-76
2021/07/30 08:05:09;;;;;;;5.35;3.58;;;32.20;48.20;;;;;;5008998;28;20440;-77
2021/07/30 08:07:35;;;;;;;5.25;2.80;;;32.00;49.30;;;;;;5014232;28;20031;-76
2021/07/30 08:10:00;;;;;;;6.45;3.90;;;32.80;47.90;;;;;;5017534;28;20764;-77
2021/07/30 08:12:26;;;;;;;6.63;3.05;;;32.40;48.50;;;;;;5013118;28;20037;-76
2021/07/30 08:14:51;;;;;;;5.32;3.38;;;32.70;47.50;;;;;;5001573;28;20040;-77
2021/07/30 08:17:17;;;;;;;4.90;3.10;;;32.60;47.90;;;;;;5003209;28;20037;-77
2021/07/30 08:19:47;;;;;;;6.20;3.25;;;33.30;46.80;;;;;;5009092;28;20030;-76
2021/07/30 08:22:13;;;;;;;5.97;2.80;;;33.60;46.30;;;;;;5010099;28;20049;-77
2021/07/30 08:24:39;;;;;;;5.50;3.47;;;33.90;46.00;;;;;;5018478;28;20052;-76
2021/07/30 08:27:06;;;;;;;4.47;3.60;;;33.70;47.20;;;;;;5017796;28;20026;-77
2021/07/30 08:29:31;;;;;;;4.60;2.92;;;33.90;46.10;;;;;;5017110;28;20033;-77
2021/07/30 08:31:57;;;;;;;7.45;3.08;;;33.40;46.50;;;;;;5011658;28;20510;-78
2021/07/30 08:34:24;;;;;;;6.25;3.13;;;33.90;46.10;;;;;;5012971;28;20061;-79
2021/07/30 08:36:49;;;;;;;6.20;3.33;;;35.10;45.00;;;;;;5014872;28;20451;-78
2021/07/30 08:39:15;;;;;;;4.20;3.40;;;34.70;44.90;;;;;;5019365;28;20040;-79
2021/07/30 08:41:50;;;;;;;11.70;3.97;;;34.20;45.50;;;;;;5017333;28;20033;-85
2021/07/30 08:44:16;;;;;;;13.90;4.43;;;34.20;45.80;;;;;;5017984;28;20043;-78
2021/07/30 08:46:44;;;;;;;9.30;3.42;;;35.50;44.30;;;;;;5017253;28;20029;-80
2021/07/30 08:49:10;;;;;;;8.55;3.65;;;35.30;44.20;;;;;;5017543;28;20159;-79
2021/07/30 08:51:41;;;;;;;7.38;3.22;;;35.30;44.20;;;;;;5017788;28;20022;-80
2021/07/30 08:54:07;;;;;;;14.20;3.53;;;36.10;43.80;;;;;;5019983;28;20056;-79
2021/07/30 08:56:36;;;;;;;5.90;2.75;;;36.40;43.40;;;;;;5013601;28;20550;-75
2021/07/30 08:59:02;;;;;;;6.18;3.63;;;34.20;44.30;;;;;;5018217;28;20184;-75
2021/07/30 09:01:27;;;;;;;5.03;2.70;;;32.90;45.70;;;;;;5016348;28;20041;-75
2021/07/30 09:03:53;;;;;;;6.53;2.75;;;31.90;46.70;;;;;;5019022;28;20056;-75
2021/07/30 09:06:20;;;;;;;6.38;3.78;;;32.60;46.00;;;;;;5017094;28;20473;-76
2021/07/30 09:09:05;;;;;;;4.18;2.58;;;33.90;45.20;;;;;;5017988;28;20575;-75
2021/07/30 09:11:38;;;;;;;7.35;3.58;;;35.10;44.30;;;;;;5016991;28;20242;-76
2021/07/30 09:14:08;;;;;;;5.55;2.80;;;34.60;44.20;;;;;;5009961;28;20092;-82
2021/07/30 09:16:51;;;;;;;3.60;2.53;;;34.00;44.30;;;;;;5013961;28;20407;-77
2021/07/30 09:19:17;;;;;;;6.78;3.13;;;33.30;44.70;;;;;;5012414;28;20056;-77
2021/07/30 09:21:43;;;;;;;4.18;2.95;;;33.20;45.20;;;;;;5004058;28;20041;-77
2021/07/30 09:24:14;;;;;;;3.97;2.70;;;33.50;45.00;;;;;;5016106;28;20129;-78
2021/07/30 09:26:44;;;;;;;6.30;2.60;;;34.20;44.80;;;;;;5016943;28;20503;-78
2021/07/30 09:29:11;;;;;;;;;;;34.10;44.30;;;;;;5015708;28;20025;-75
2021/07/30 09:32:02;;;;;;;7.00;2.60;;;34.80;44.10;;;;;;5013367;28;19948;-77
2021/07/30 09:34:36;;;;;;;4.95;3.13;;;34.30;44.60;;;;;;5006319;28;20034;-78
2021/07/30 09:37:14;;;;;;;6.82;3.13;;;34.20;44.60;;;;;;5016274;28;20116;-79
2021/07/30 09:39:42;;;;;;;6.28;3.20;;;34.90;43.60;;;;;;5016196;28;20052;-77
2021/07/30 09:42:09;;;;;;;5.22;2.65;;;34.00;44.40;;;;;;5013051;28;20022;-78
2021/07/30 09:44:46;;;;;;;5.20;2.60;;;32.60;45.20;;;;;;5017525;28;20053;-78
2021/07/30 09:47:21;;;;;;;4.65;2.58;;;32.00;46.00;;;;;;5023501;28;20541;-78
2021/07/30 09:49:51;;;;;;;5.75;2.83;;;31.20;47.10;;;;;;5012329;28;20057;-76
2021/07/30 09:52:25;;;;;;;6.05;3.35;;;30.90;47.40;;;;;;5021281;28;20026;-78
2021/07/30 09:55:02;;;;;;;4.93;2.70;;;32.20;46.70;;;;;;5015768;28;20084;-80
2021/07/30 09:57:29;;;;;;;8.25;3.40;;;33.00;45.20;;;;;;5020748;28;20030;-79
2021/07/30 09:59:59;;;;;;;4.28;2.90;;;34.80;44.30;;;;;;5022180;28;20116;-79
2021/07/30 10:02:29;;;;;;;5.22;2.83;;;34.90;44.00;;;;;;5019424;28;20053;-80
2021/07/30 10:04:56;;;;;;;5.13;2.58;;;35.10;43.80;;;;;;5020851;28;20049;-77
2021/07/30 10:07:23;;;;;;;6.47;2.95;;;35.00;43.80;;;;;;5012476;28;20022;-76
2021/07/30 10:10:39;;;;;;;4.35;2.72;;;35.30;43.40;;;;;;5020622;28;20101;-74
2021/07/30 10:13:06;;;;;;;4.63;2.65;;;35.40;43.80;;;;;;5013833;28;20033;-73
2021/07/30 10:15:32;;;;;;;4.18;2.42;;;35.20;43.40;;;;;;5015662;28;20052;-71
2021/07/30 10:17:58;;;;;;;6.03;2.80;;;34.50;43.80;;;;;;5003307;28;20340;-74
2021/07/30 10:20:25;;;;;;;3.88;2.20;;;33.80;44.30;;;;;;4996073;28;20030;-74
2021/07/30 10:23:11;;;;;;;6.07;2.92;;;33.90;44.70;;;;;;5006589;28;20041;-73
2021/07/30 10:25:40;;;;;;;3.97;2.20;;;34.40;43.80;;;;;;5014749;28;20088;-74
2021/07/30 10:28:17;;;;;;;8.30;2.65;;;34.10;44.50;;;;;;5020576;28;20031;-73
2021/07/30 10:30:57;;;;;;;8.07;2.60;;;34.00;44.50;;;;;;5012123;28;20022;-77
2021/07/30 10:33:36;;;;;;;6.03;2.35;;;33.90;44.00;;;;;;5017594;28;20057;-75
2021/07/30 10:36:03;;;;;;;6.63;3.08;;;33.40;44.70;;;;;;5021734;28;20172;-76
2021/07/30 10:38:29;;;;;;;4.88;2.80;;;32.80;46.10;;;;;;5018889;28;20077;-76
2021/07/30 10:40:58;;;;;;;8.15;2.60;;;32.80;45.80;;;;;;5017116;28;20026;-75
2021/07/30 10:43:27;;;;;;;6.38;2.42;;;33.10;45.70;;;;;;5020911;28;20076;-74
2021/07/30 10:46:11;;;;;;;6.18;3.30;;;33.50;45.30;;;;;;5013617;28;20109;-74
2021/07/30 10:48:40;;;;;;;5.65;2.78;;;31.90;45.50;;;;;;5014909;28;20100;-75
2021/07/30 10:51:18;;;;;;;4.78;2.72;;;31.20;47.30;;;;;;5009802;28;20049;-77
2021/07/30 10:53:54;;;;;;;6.30;2.90;;;30.20;47.90;;;;;;5011804;28;20053;-75
2021/07/30 10:56:19;;;;;;;7.00;2.60;;;29.70;48.80;;;;;;5013509;28;20036;-75
2021/07/30 10:58:45;;;;;;;6.43;2.77;;;29.50;48.20;;;;;;5013554;28;20148;-75
2021/07/30 11:01:13;;;;;;;7.05;3.35;;;29.00;49.10;;;;;;5011744;28;20303;-75
2021/07/30 11:03:51;;;;;;;6.50;3.42;;;29.20;49.10;;;;;;5014683;28;20028;-76
2021/07/30 11:06:25;;;;;;;6.88;2.47;;;29.30;49.60;;;;;;4995263;28;20129;-74
2021/07/30 11:11:41;;;;;;;6.20;3.22;;;29.60;49.20;;;;;;5012317;28;20116;-74
2021/07/30 11:14:13;;;;;;;7.68;2.72;;;29.60;49.00;;;;;;5014666;28;20030;-74
2021/07/30 11:16:42;;;;;;;6.03;3.13;;;30.00;48.20;;;;;;5012307;28;20036;-75
2021/07/30 11:19:09;;;;;;;4.57;2.80;;;29.80;48.50;;;;;;5013501;28;20152;-75
2021/07/30 11:21:35;;;;;;;7.85;2.75;;;30.00;48.00;;;;;;5015143;28;20042;-75
2021/07/30 11:24:01;;;;;;;7.70;3.00;;;30.30;47.90;;;;;;5014521;28;20025;-75
2021/07/30 11:26:29;;;;;;;4.60;2.60;;;30.30;47.60;;;;;;5018845;28;20049;-76
2021/07/30 11:28:56;;;;;;;4.35;2.40;;;30.70;47.20;;;;;;5014981;28;20045;-75
2021/07/30 11:31:22;;;;;;;7.25;3.25;;;31.10;47.00;;;;;;5018533;28;20111;-75
2021/07/30 11:33:48;;;;;;;5.50;2.95;;;31.70;46.70;;;;;;5010333;28;20565;-76
2021/07/30 11:36:14;;;;;;;3.65;2.53;;;31.90;47.00;;;;;;5012275;28;20491;-74
2021/07/30 11:38:54;;;;;;;5.78;2.42;;;32.30;45.10;;;;;;5010709;28;20480;-75
2021/07/30 11:41:22;;;;;;;7.93;2.80;;;32.30;45.30;;;;;;5003621;28;20450;-75
2021/07/30 11:44:08;;;;;;;8.18;2.63;;;32.60;45.10;;;;;;5014766;28;20091;-75
2021/07/30 11:46:34;;;;;;;5.22;2.58;;;33.40;44.70;;;;;;5014528;28;20027;-76
2021/07/30 11:49:02;;;;;;;8.00;3.65;;;32.40;45.50;;;;;;5009413;28;20022;-75
2021/07/30 11:51:28;;;;;;;4.07;2.60;;;32.60;46.40;;;;;;5015231;28;20030;-75
2021/07/30 11:53:55;;;;;;;6.00;2.83;;;33.50;45.70;;;;;;5018893;28;20037;-75
2021/07/30 11:56:22;;;;;;;6.25;2.78;;;31.90;45.70;;;;;;5016486;28;20088;-75
2021/07/30 11:58:55;;;;;;;3.42;2.53;;;30.80;47.50;;;;;;5017775;28;20108;-75
2021/07/30 12:01:20;;;;;;;12.18;5.38;;;31.60;47.20;;;;;;5016014;28;20041;-75
2021/07/30 12:04:07;;;;;;;13.38;5.45;;;30.80;46.90;;;;;;5018364;28;20099;-75
2021/07/30 12:06:46;;;;;;;4.85;2.78;;;30.90;47.50;;;;;;5010633;28;20026;-75
2021/07/30 12:09:13;;;;;;;9.57;4.57;;;31.90;45.80;;;;;;5014892;28;20030;-75
2021/07/30 12:11:51;;;;;;;7.75;3.92;;;32.00;46.40;;;;;;5015324;28;20532;-74
2021/07/30 12:14:17;;;;;;;5.80;3.25;;;32.20;46.20;;;;;;5009921;28;20034;-75
2021/07/30 12:16:44;;;;;;;12.70;5.43;;;33.20;45.60;;;;;;5013080;28;20030;-73
2021/07/30 12:19:09;;;;;;;6.80;3.17;;;33.70;45.50;;;;;;5018898;28;20372;-74
2021/07/30 12:21:35;;;;;;;6.47;3.60;;;35.00;44.70;;;;;;4999872;28;20055;-74
2021/07/30 12:24:05;;;;;;;7.63;2.40;;;35.40;43.70;;;;;;5017459;28;20152;-75
2021/07/30 12:26:32;;;;;;;6.15;2.97;;;34.80;44.10;;;;;;5018373;28;20033;-75
2021/07/30 12:28:58;;;;;;;5.85;4.22;;;33.40;45.20;;;;;;5017328;28;20033;-75
2021/07/30 12:31:24;;;;;;;6.18;4.13;;;33.40;45.60;;;;;;5016756;28;20030;-74
2021/07/30 12:33:49;;;;;;;6.28;3.30;;;33.20;45.80;;;;;;5014775;28;20026;-75
2021/07/30 12:36:16;;;;;;;5.78;3.30;;;33.60;45.50;;;;;;5019501;28;20219;-75
2021/07/30 12:39:00;;;;;;;6.80;3.20;;;33.00;45.70;;;;;;5016793;28;20068;-74
2021/07/30 12:41:27;;;;;;;5.82;3.40;;;32.80;46.00;;;;;;5016726;28;20041;-74
2021/07/30 12:43:54;;;;;;;5.88;4.07;;;32.40;46.10;;;;;;5018480;28;20370;-75
2021/07/30 12:46:44;;;;;;;8.23;3.10;;;31.20;47.70;;;;;;5017570;28;20030;-75
2021/07/30 12:49:11;;;;;;;3.80;2.53;;;31.30;47.90;;;;;;5013365;28;20384;-75
2021/07/30 12:51:38;;;;;;;5.45;4.30;;;32.30;46.60;;;;;;5012208;28;20032;-75
2021/07/30 12:54:10;;;;;;;5.53;3.00;;;32.80;46.60;;;;;;5003085;28;20038;-75